createdAt,value
2019-05-03T00:02:13.243Z,99690.52
2019-05-03T00:04:46.224Z,99690.97
2019-05-03T00:07:17.957Z,99685.98
2019-05-03T00:09:52.022Z,99684.80
2019-05-03T00:12:23.843Z,99675.33
2019-05-03T00:15:06.368Z,99679.28
2019-05-03T00:17:38.783Z,99679.47
2019-05-03T00:20:11.653Z,99643.05
2019-05-03T00:22:43.441Z,99682.12
2019-05-03T00:25:14.946Z,99685.95
2019-05-03T00:27:47.100Z,99688.56
2019-05-03T00:30:18.856Z,99681.04
2019-05-03T00:32:52.151Z,99675.17
2019-05-03T00:35:25.307Z,99675.17
2019-05-03T00:37:58.637Z,99669.05
2019-05-03T00:40:32.243Z,99674.69
2019-05-03T00:43:03.396Z,99667.90
2019-05-03T00:45:35.172Z,99671.03
2019-05-03T00:48:07.512Z,99672.70
2019-05-03T00:50:39.259Z,99668.75
2019-05-03T00:53:11.743Z,99670.84
2019-05-03T00:55:43.398Z,99669.50
2019-05-03T00:58:15.189Z,99668.93
2019-05-03T01:00:46.606Z,99672.83
2019-05-03T01:03:18.791Z,99661.22
2019-05-03T01:05:50.425Z,99661.22
2019-05-03T01:08:22.448Z,99658.23
2019-05-03T01:10:54.270Z,99665.96
2019-05-03T01:13:26.021Z,99671.14
2019-05-03T01:15:59.438Z,99671.14
2019-05-03T01:18:32.381Z,99667.20
2019-05-03T01:21:04.349Z,99672.75
2019-05-03T01:23:35.935Z,99674.85
2019-05-03T01:26:07.766Z,99675.64
2019-05-03T01:28:39.219Z,99667.00
2019-05-03T01:31:12.003Z,99672.37
2019-05-03T01:33:43.532Z,99680.12
2019-05-03T01:36:15.432Z,99677.92
2019-05-03T01:38:46.919Z,99678.14
2019-05-03T01:41:18.748Z,99676.80
2019-05-03T01:43:52.418Z,99674.94
2019-05-03T01:46:24.254Z,99675.91
2019-05-03T01:49:01.555Z,99670.45
2019-05-03T01:51:44.075Z,99680.19
2019-05-03T01:54:15.059Z,99604.27
2019-05-03T01:59:23.589Z,99682.40
2019-05-03T02:02:12.934Z,99683.22
2019-05-03T02:04:46.197Z,99680.67
2019-05-03T02:07:17.754Z,99682.20
2019-05-03T02:09:49.752Z,99686.08
2019-05-03T02:12:22.204Z,99680.91
2019-05-03T02:14:53.395Z,99676.31
2019-05-03T02:17:25.352Z,99675.94
2019-05-03T02:19:57.177Z,99687.87
2019-05-03T02:22:28.714Z,99683.27
2019-05-03T02:25:01.745Z,99688.64
2019-05-03T02:27:33.635Z,99690.92
2019-05-03T02:30:06.308Z,99692.41
2019-05-03T02:32:37.843Z,99692.08
2019-05-03T02:35:09.650Z,99701.42
2019-05-03T02:37:43.842Z,99699.11
2019-05-03T02:42:26.231Z,99709.92
2019-05-03T02:44:59.983Z,99631.15
2019-05-03T02:47:40.472Z,99720.34
2019-05-03T02:50:16.480Z,99724.77
2019-05-03T02:52:47.185Z,99721.53
2019-05-03T02:55:18.926Z,99724.28
2019-05-03T02:57:50.650Z,99730.00
2019-05-03T03:00:40.343Z,99730.00
2019-05-03T03:03:12.371Z,99736.07
2019-05-03T03:05:46.365Z,99735.28
2019-05-03T03:08:20.382Z,99734.72
2019-05-03T03:10:55.571Z,99735.00
2019-05-03T03:13:28.908Z,99728.34
2019-05-03T03:16:03.446Z,99730.16
2019-05-03T03:18:37.464Z,99736.25
2019-05-03T03:21:15.717Z,99739.27
2019-05-03T03:24:09.907Z,99734.38
2019-05-03T03:26:43.412Z,99737.45
2019-05-03T03:29:16.531Z,99742.59
2019-05-03T03:32:08.478Z,99739.90
2019-05-03T03:34:48.100Z,99745.31
2019-05-03T03:37:15.681Z,99737.98
2019-05-03T03:39:46.893Z,99745.64
2019-05-03T03:42:19.918Z,99736.72
2019-05-03T03:44:56.059Z,99747.31
2019-05-03T03:47:30.043Z,99747.77
2019-05-03T03:50:05.865Z,99746.44
2019-05-03T03:52:40.480Z,99750.80
2019-05-03T03:55:15.642Z,99748.38
2019-05-03T03:57:46.947Z,99751.06
2019-05-03T04:00:19.157Z,99740.88
2019-05-03T04:02:50.313Z,99749.06
2019-05-03T04:05:21.957Z,99756.37
2019-05-03T04:07:56.142Z,99761.20
2019-05-03T04:10:28.286Z,99766.29
2019-05-03T04:13:00.522Z,99763.69
2019-05-03T04:15:39.461Z,99767.69
2019-05-03T04:18:19.377Z,99768.44
2019-05-03T04:20:50.977Z,99772.76
2019-05-03T04:23:23.011Z,99774.81
2019-05-03T04:25:56.545Z,99772.39
2019-05-03T04:28:29.291Z,99772.72
2019-05-03T04:31:00.841Z,99783.66
2019-05-03T04:33:35.711Z,99775.55
2019-05-03T04:36:06.271Z,99767.59
2019-05-03T04:38:38.613Z,99772.97
2019-05-03T04:41:10.671Z,99771.41
2019-05-03T04:43:41.964Z,99768.63
2019-05-03T04:46:16.408Z,99775.23
2019-05-03T04:48:48.675Z,99769.47
2019-05-03T04:51:20.568Z,99772.59
2019-05-03T04:53:55.696Z,99770.06
2019-05-03T04:56:27.324Z,99770.63
2019-05-03T04:58:59.330Z,99767.41
2019-05-03T05:01:30.873Z,99776.66
2019-05-03T05:04:05.191Z,99775.98
2019-05-03T05:06:36.390Z,99744.64
2019-05-03T05:09:08.873Z,99771.39
2019-05-03T05:11:40.957Z,99761.65
2019-05-03T05:14:15.139Z,99770.42
2019-05-03T05:16:46.776Z,99772.20
2019-05-03T05:19:29.279Z,99779.01
2019-05-03T05:22:08.242Z,99775.39
2019-05-03T05:24:40.874Z,99772.45
2019-05-03T05:27:14.636Z,99777.34
2019-05-03T05:29:46.445Z,99776.92
2019-05-03T05:32:18.048Z,99777.86
2019-05-03T05:34:49.847Z,99771.16
2019-05-03T05:37:21.224Z,99776.74
2019-05-03T05:39:55.092Z,99771.66
2019-05-03T05:42:27.000Z,99782.05
2019-05-03T05:44:58.716Z,99785.88
2019-05-03T05:47:37.450Z,99782.34
2019-05-03T05:50:11.172Z,99789.67
2019-05-03T05:52:44.728Z,99782.66
2019-05-03T05:55:26.748Z,99787.37
2019-05-03T05:58:15.739Z,99786.39
2019-05-03T06:00:52.353Z,99783.95
2019-05-03T06:03:25.242Z,99792.16
2019-05-03T06:05:58.651Z,99793.88
2019-05-03T06:08:35.439Z,99788.23
2019-05-03T06:11:14.901Z,99785.78
2019-05-03T06:13:57.355Z,99784.72
2019-05-03T06:16:36.829Z,99785.69
2019-05-03T06:19:14.614Z,99788.07
2019-05-03T06:22:05.987Z,99794.70
2019-05-03T06:24:39.486Z,99792.28
2019-05-03T06:27:12.736Z,99784.92
2019-05-03T06:29:45.428Z,99788.02
2019-05-03T06:32:18.666Z,99789.45
2019-05-03T06:34:50.244Z,99786.00
2019-05-03T06:37:29.665Z,99786.61
2019-05-03T06:40:01.916Z,99781.97
2019-05-03T06:42:35.484Z,99776.53
2019-05-03T06:45:11.515Z,99779.45
2019-05-03T06:47:46.054Z,99782.36
2019-05-03T06:50:19.393Z,99783.75
2019-05-03T06:52:48.948Z,99787.48
2019-05-03T06:55:20.749Z,99790.12
2019-05-03T06:57:54.526Z,99788.41
2019-05-03T07:00:32.188Z,99785.06
2019-05-03T07:03:17.290Z,99789.90
2019-05-03T07:05:50.626Z,99794.77
2019-05-03T07:08:41.466Z,99798.22
2019-05-03T07:11:15.351Z,99800.48
2019-05-03T07:13:46.484Z,99805.63
2019-05-03T07:16:18.275Z,99802.71
2019-05-03T07:18:49.914Z,99803.65
2019-05-03T07:21:21.498Z,99803.59
2019-05-03T07:23:55.183Z,99805.55
2019-05-03T07:26:29.120Z,99795.42
2019-05-03T07:29:00.704Z,99800.44
2019-05-03T07:31:32.474Z,99800.41
2019-05-03T07:34:05.198Z,99803.01
2019-05-03T07:36:36.998Z,99802.52
2019-05-03T07:39:09.753Z,99803.75
2019-05-03T07:41:41.145Z,99810.44
2019-05-03T07:44:15.060Z,99808.33
2019-05-03T07:46:46.195Z,99814.77
2019-05-03T07:49:18.161Z,99815.34
2019-05-03T07:51:50.214Z,99813.95
2019-05-03T07:54:21.674Z,99817.19
2019-05-03T07:56:54.998Z,99821.28
2019-05-03T07:59:26.458Z,99819.70
2019-05-03T08:01:58.991Z,99813.39
2019-05-03T08:04:30.965Z,99819.78
2019-05-03T08:07:04.480Z,99820.38
2019-05-03T08:09:36.119Z,99816.06
2019-05-03T08:12:07.793Z,99820.47
2019-05-03T08:14:39.357Z,99828.20
2019-05-03T08:17:11.949Z,99824.97
2019-05-03T08:19:44.766Z,99820.84
2019-05-03T08:22:16.525Z,99824.89
2019-05-03T08:24:48.202Z,99818.94
2019-05-03T08:27:19.985Z,99826.39
2019-05-03T08:29:51.819Z,99821.73
2019-05-03T08:32:41.136Z,99822.57
2019-05-03T08:35:17.319Z,99821.20
2019-05-03T08:37:50.671Z,99820.11
2019-05-03T08:40:24.574Z,99823.13
2019-05-03T08:42:56.202Z,99814.34
2019-05-03T08:45:27.924Z,99822.58
2019-05-03T08:47:59.826Z,99823.68
2019-05-03T08:50:31.574Z,99825.02
2019-05-03T08:53:05.230Z,99817.59
2019-05-03T08:55:36.686Z,99828.54
2019-05-03T08:58:08.400Z,99824.73
2019-05-03T09:00:41.676Z,99825.02
2019-05-03T09:03:14.588Z,99822.59
2019-05-03T09:05:46.594Z,99828.59
2019-05-03T09:08:18.925Z,99817.66
2019-05-03T09:11:01.434Z,99814.89
2019-05-03T09:13:48.757Z,99819.19
2019-05-03T09:16:20.608Z,99784.20
2019-05-03T09:18:52.077Z,99823.66
2019-05-03T09:21:25.513Z,99823.38
2019-05-03T09:23:58.069Z,99821.48
2019-05-03T09:26:29.834Z,99820.38
2019-05-03T09:29:01.482Z,99819.83
2019-05-03T09:31:35.138Z,99822.61
2019-05-03T09:34:08.332Z,99826.13
2019-05-03T09:36:40.536Z,99819.54
2019-05-03T09:39:12.160Z,99818.70
2019-05-03T09:41:45.033Z,99825.81
2019-05-03T09:44:16.797Z,99828.87
2019-05-03T09:46:48.239Z,99826.41
2019-05-03T09:49:20.239Z,99818.73
2019-05-03T09:51:51.865Z,99824.77
2019-05-03T09:54:25.579Z,99824.23
2019-05-03T09:56:58.801Z,99820.94
2019-05-03T09:59:31.233Z,99825.59
2019-05-03T10:02:04.830Z,99826.69
2019-05-03T10:04:36.907Z,99831.33
2019-05-03T10:07:09.678Z,99825.33
2019-05-03T10:09:41.654Z,99829.69
2019-05-03T10:12:16.209Z,99837.09
2019-05-03T10:14:48.108Z,99834.34
2019-05-03T10:17:36.382Z,99834.35
2019-05-03T10:20:15.353Z,99834.37
2019-05-03T10:22:46.952Z,99832.72
2019-05-03T10:25:18.949Z,99836.27
2019-05-03T10:27:50.474Z,99831.37
2019-05-03T10:30:23.966Z,99831.34
2019-05-03T10:33:15.525Z,99828.90
2019-05-03T10:35:47.890Z,99831.91
2019-05-03T10:38:19.687Z,99829.14
2019-05-03T10:40:54.882Z,99829.11
2019-05-03T10:43:25.890Z,99826.40
2019-05-03T10:45:57.855Z,99831.88
2019-05-03T10:48:28.951Z,99823.98
2019-05-03T10:51:00.959Z,99823.94
2019-05-03T10:53:34.585Z,99812.45
2019-05-03T10:56:23.045Z,99815.45
2019-05-03T10:58:55.016Z,99815.73
2019-05-03T11:01:38.061Z,99816.56
2019-05-03T11:04:09.641Z,99813.27
2019-05-03T11:06:41.400Z,99817.88
2019-05-03T11:09:15.339Z,99786.12
2019-05-03T11:11:46.519Z,99816.55
2019-05-03T11:14:18.215Z,99819.84
2019-05-03T11:16:50.074Z,99817.33
2019-05-03T11:19:21.521Z,99823.02
2019-05-03T11:21:54.731Z,99820.80
2019-05-03T11:24:27.530Z,99811.52
2019-05-03T11:27:01.005Z,99815.98
2019-05-03T11:29:32.444Z,99816.81
2019-05-03T11:32:10.681Z,99800.38
2019-05-03T11:35:00.138Z,99800.38
2019-05-03T11:37:34.618Z,99813.79
2019-05-03T11:40:07.952Z,99810.80
2019-05-03T11:42:39.078Z,99814.38
2019-05-03T11:45:12.102Z,99810.47
2019-05-03T11:47:45.782Z,99812.17
2019-05-03T11:50:18.493Z,99807.50
2019-05-03T11:52:50.005Z,99808.59
2019-05-03T11:55:21.870Z,99808.30
2019-05-03T11:57:53.359Z,99807.22
2019-05-03T12:00:26.835Z,99813.78
2019-05-03T12:03:04.849Z,99804.20
2019-05-03T12:05:36.001Z,99802.04
2019-05-03T12:08:07.620Z,99799.02
2019-05-03T12:10:52.486Z,99789.97
2019-05-03T12:13:17.501Z,99793.27
2019-05-03T12:15:49.443Z,99791.59
2019-05-03T12:18:22.228Z,99791.60
2019-05-03T12:20:56.865Z,99782.58
2019-05-03T12:23:30.999Z,99787.98
2019-05-03T12:26:01.630Z,99785.52
2019-05-03T12:28:35.285Z,99792.11
2019-05-03T12:31:07.083Z,99781.70
2019-05-03T12:33:39.047Z,99772.39
2019-05-03T12:36:11.361Z,99771.83
2019-05-03T12:38:43.357Z,99777.86
2019-05-03T12:41:15.177Z,99769.11
2019-05-03T12:43:46.691Z,99771.60
2019-05-03T12:46:18.535Z,99773.53
2019-05-03T12:48:51.307Z,99772.67
2019-05-03T12:51:25.019Z,99769.12
2019-05-03T12:53:56.286Z,99775.42
2019-05-03T12:56:32.527Z,99766.91
2019-05-03T12:59:09.721Z,99768.87
2019-05-03T13:01:59.600Z,99775.17
2019-05-03T13:04:32.869Z,99772.44
2019-05-03T13:07:06.342Z,99766.67
2019-05-03T13:09:38.161Z,99768.02
2019-05-03T13:12:11.545Z,99768.55
2019-05-03T13:14:45.256Z,99768.81
2019-05-03T13:17:17.791Z,99770.73
2019-05-03T13:19:49.531Z,99763.08
2019-05-03T13:22:21.383Z,99763.36
2019-05-03T13:24:54.526Z,99763.33
2019-05-03T13:27:26.287Z,99764.45
2019-05-03T13:29:58.044Z,99765.82
2019-05-03T13:32:29.893Z,99759.27
2019-05-03T13:35:01.565Z,99766.97
2019-05-03T13:37:35.748Z,99762.31
2019-05-03T13:40:08.000Z,99766.13
2019-05-03T13:42:53.051Z,99765.04
2019-05-03T13:45:12.934Z,99770.26
2019-05-03T13:47:44.832Z,99762.58
2019-05-03T13:50:16.504Z,99763.13
2019-05-03T13:52:48.185Z,99769.16
2019-05-03T13:55:19.811Z,99764.50
2019-05-03T13:57:51.708Z,99772.17
2019-05-03T14:00:24.697Z,99770.25
2019-05-03T14:02:56.527Z,99763.96
2019-05-03T14:05:28.072Z,99771.30
2019-05-03T14:08:00.087Z,99769.91
2019-05-03T14:10:31.183Z,99773.97
2019-05-03T14:13:02.940Z,99777.19
2019-05-03T14:15:34.814Z,99773.89
2019-05-03T14:18:07.600Z,99776.81
2019-05-03T14:20:54.937Z,99771.29
2019-05-03T14:23:26.270Z,99775.13
2019-05-03T14:25:57.963Z,99776.70
2019-05-03T14:28:29.609Z,99786.72
2019-05-03T14:31:01.116Z,99778.52
2019-05-03T14:33:32.810Z,99782.88
2019-05-03T14:36:05.294Z,99776.02
2019-05-03T14:38:37.212Z,99783.23
2019-05-03T14:41:09.011Z,99783.23
2019-05-03T14:43:40.932Z,99777.30
2019-05-03T14:46:14.964Z,99772.47
2019-05-03T14:48:46.210Z,99781.22
2019-05-03T14:51:17.668Z,99780.37
2019-05-03T14:53:49.996Z,99782.30
2019-05-03T14:56:31.840Z,99785.88
2019-05-03T14:59:21.298Z,99777.91
2019-05-03T15:01:57.745Z,99782.02
2019-05-03T15:04:29.804Z,99781.48
2019-05-03T15:07:01.406Z,99778.91
2019-05-03T15:09:35.146Z,99781.61
2019-05-03T15:12:06.424Z,99774.16
2019-05-03T15:14:38.172Z,99767.59
2019-05-03T15:17:10.055Z,99771.98
2019-05-03T15:19:41.883Z,99764.02
2019-05-03T15:22:14.637Z,99767.56
2019-05-03T15:24:47.379Z,99766.19
2019-05-03T15:27:18.943Z,99771.07
2019-05-03T15:29:50.909Z,99768.30
2019-05-03T15:32:24.868Z,99765.80
2019-05-03T15:34:56.528Z,99772.58
2019-05-03T15:37:28.040Z,99770.66
2019-05-03T15:39:59.856Z,99771.69
2019-05-03T15:42:31.636Z,99780.95
2019-05-03T15:45:05.269Z,99782.48
2019-05-03T15:47:38.698Z,99788.92
2019-05-03T15:50:10.231Z,99795.91
2019-05-03T15:52:42.060Z,99792.83
2019-05-03T15:55:15.232Z,99791.69
2019-05-03T15:57:46.933Z,99789.11
2019-05-03T16:00:18.552Z,99792.84
2019-05-03T16:02:50.579Z,99792.23
2019-05-03T16:05:22.178Z,99796.51
2019-05-03T16:07:55.307Z,99792.34
2019-05-03T16:10:27.912Z,99795.24
2019-05-03T16:12:59.876Z,99791.58
2019-05-03T16:15:31.617Z,99789.81
2019-05-03T16:18:05.153Z,99796.49
2019-05-03T16:20:39.425Z,99798.83
2019-05-03T16:23:10.094Z,99797.08
2019-05-03T16:25:41.722Z,99800.77
2019-05-03T16:28:20.326Z,99801.73
2019-05-03T16:30:52.820Z,99803.48
2019-05-03T16:33:27.866Z,99799.50
2019-05-03T16:35:58.184Z,99805.33
2019-05-03T16:38:30.142Z,99801.34
2019-05-03T16:41:01.702Z,99802.56
2019-05-03T16:43:34.854Z,99772.37
2019-05-03T16:46:06.543Z,99804.41
2019-05-03T16:48:38.708Z,99809.98
2019-05-03T16:51:10.875Z,99813.32
2019-05-03T16:53:44.523Z,99817.84
2019-05-03T16:56:17.093Z,99820.30
2019-05-03T16:58:48.867Z,99823.42
2019-05-03T17:01:20.473Z,99818.67
2019-05-03T17:03:54.929Z,99821.22
2019-05-03T17:06:34.831Z,99821.38
2019-05-03T17:09:17.995Z,99825.39
2019-05-03T17:12:07.388Z,99835.03
2019-05-03T17:14:39.188Z,99845.52
2019-05-03T17:17:11.156Z,99846.45
2019-05-03T17:19:44.698Z,99849.03
2019-05-03T17:22:17.421Z,99851.05
2019-05-03T17:24:51.646Z,99855.52
2019-05-03T17:27:24.858Z,99853.12
2019-05-03T17:29:55.924Z,99855.22
2019-05-03T17:32:27.428Z,99863.02
2019-05-03T17:34:59.595Z,99857.53
2019-05-03T17:37:31.544Z,99865.55
2019-05-03T17:40:05.441Z,99873.73
2019-05-03T17:42:55.488Z,99885.31
2019-05-03T17:45:28.963Z,99885.87
2019-05-03T17:48:01.079Z,99891.12
2019-05-03T17:50:34.719Z,99894.17
2019-05-03T17:53:07.968Z,99895.79
2019-05-03T17:55:56.366Z,99896.78
2019-05-03T17:58:46.065Z,99901.00
2019-05-03T18:01:25.372Z,99902.81
2019-05-03T18:04:09.478Z,99903.80
2019-05-03T18:06:59.314Z,99906.01
2019-05-03T18:09:34.445Z,99905.22
2019-05-03T18:12:06.794Z,99907.70
2019-05-03T18:14:37.890Z,99906.74
2019-05-03T18:17:09.516Z,99901.25
2019-05-03T18:19:40.963Z,99908.87
2019-05-03T18:22:12.744Z,99910.69
2019-05-03T18:24:45.524Z,99906.38
2019-05-03T18:27:18.208Z,99903.52
2019-05-03T18:29:49.934Z,99908.95
2019-05-03T18:32:21.941Z,99916.99
2019-05-03T18:34:54.595Z,99918.88
2019-05-03T18:37:26.377Z,99918.13
2019-05-03T18:39:58.133Z,99922.22
2019-05-03T18:42:40.820Z,99924.55
2019-05-03T18:45:19.367Z,99929.38
2019-05-03T18:47:50.878Z,99936.35
2019-05-03T18:50:22.514Z,99937.77
2019-05-03T18:52:55.392Z,99934.23
2019-05-03T18:55:26.973Z,99945.28
2019-05-03T18:57:58.950Z,99947.94
2019-05-03T19:00:31.563Z,99949.23
2019-05-03T19:03:03.368Z,99956.05
2019-05-03T19:05:36.432Z,99957.47
2019-05-03T19:08:24.891Z,99960.15
2019-05-03T19:10:58.013Z,99961.64
2019-05-03T19:13:46.533Z,99971.77
2019-05-03T19:16:29.159Z,99975.26
2019-05-03T19:19:01.132Z,99977.36
2019-05-03T19:21:32.655Z,99974.87
2019-05-03T19:24:04.855Z,99982.52
2019-05-03T19:26:36.539Z,99977.03
2019-05-03T19:29:08.195Z,99985.08
2019-05-03T19:31:39.857Z,99985.84
2019-05-03T19:34:15.283Z,99949.73
2019-05-03T19:36:46.343Z,99988.72
2019-05-03T19:39:18.713Z,99993.48
2019-05-03T19:41:50.323Z,99985.79
2019-05-03T19:44:22.511Z,99989.12
2019-05-03T19:46:54.270Z,99989.47
2019-05-03T19:49:26.647Z,99985.44
2019-05-03T19:51:58.420Z,99994.16
2019-05-03T19:54:30.384Z,99986.78
2019-05-03T19:57:01.869Z,99988.37
2019-05-03T19:59:50.241Z,99990.98
2019-05-03T20:02:39.738Z,99992.55
2019-05-03T20:05:14.963Z,99995.86
2019-05-03T20:08:07.025Z,99994.73
2019-05-03T20:10:40.555Z,99991.55
2019-05-03T20:13:12.145Z,99990.29
2019-05-03T20:15:45.056Z,99995.91
2019-05-03T20:18:18.106Z,99992.91
2019-05-03T20:20:50.079Z,100000.08
2019-05-03T20:23:22.015Z,100001.14
2019-05-03T20:25:54.628Z,99999.06
2019-05-03T20:28:26.382Z,99999.06
2019-05-03T20:30:57.984Z,99996.16
2019-05-03T20:33:29.389Z,100000.83
2019-05-03T20:36:01.352Z,100004.38
2019-05-03T20:38:33.001Z,100004.27
2019-05-03T20:41:05.253Z,99994.31
2019-05-03T20:43:41.559Z,100002.71
2019-05-03T20:46:28.421Z,100004.27
2019-05-03T20:49:02.006Z,100010.40
2019-05-03T20:51:34.588Z,100011.42
2019-05-03T20:54:05.605Z,100004.67
2019-05-03T20:56:38.261Z,100006.02
2019-05-03T20:59:09.763Z,100012.48
2019-05-03T21:01:41.788Z,100016.21
2019-05-03T21:04:15.300Z,100017.16
2019-05-03T21:06:47.340Z,100025.98
2019-05-03T21:09:18.872Z,100020.14
2019-05-03T21:11:51.081Z,100025.34
2019-05-03T21:14:24.483Z,100023.91
2019-05-03T21:16:58.400Z,100021.70
2019-05-03T21:19:50.070Z,100028.56
2019-05-03T21:22:24.914Z,100034.47
2019-05-03T21:24:58.189Z,100032.58
2019-05-03T21:27:30.213Z,100042.97
2019-05-03T21:30:01.781Z,100045.98
2019-05-03T21:32:35.156Z,100048.58
2019-05-03T21:35:07.884Z,100052.75
2019-05-03T21:37:39.574Z,100051.48
2019-05-03T21:40:11.207Z,100048.05
2019-05-03T21:42:45.159Z,100047.23
2019-05-03T21:45:18.112Z,100047.10
2019-05-03T21:48:06.537Z,100046.08
2019-05-03T21:50:38.605Z,100041.89
2019-05-03T21:53:10.479Z,100038.16
2019-05-03T21:55:42.034Z,100041.88
2019-05-03T21:58:16.043Z,100040.94
2019-05-03T22:00:49.560Z,100043.84
2019-05-03T22:03:21.296Z,100044.59
2019-05-03T22:05:57.355Z,100049.59
2019-05-03T22:08:26.482Z,100043.48
2019-05-03T22:10:59.173Z,100045.45
2019-05-03T22:13:31.083Z,100044.92
2019-05-03T22:16:15.397Z,100049.09
2019-05-03T22:18:46.948Z,100044.09
2019-05-03T22:21:20.197Z,100043.34
2019-05-03T22:23:56.462Z,100046.79
2019-05-03T22:26:32.457Z,100048.14
2019-05-03T22:29:04.431Z,100047.61
2019-05-03T22:31:36.428Z,100050.52
2019-05-03T22:34:08.391Z,100053.96
2019-05-03T22:36:40.153Z,100050.12
2019-05-03T22:39:11.854Z,100058.23
2019-05-03T22:41:45.086Z,100051.16
2019-05-03T22:44:17.237Z,100047.84
2019-05-03T22:46:49.050Z,100044.52
2019-05-03T22:49:21.226Z,100061.06
2019-05-03T22:51:54.400Z,100090.06
2019-05-03T22:54:26.500Z,100090.09
2019-05-03T22:56:58.250Z,100090.91
2019-05-03T22:59:30.136Z,100078.77
2019-05-03T23:02:02.231Z,100066.70
2019-05-03T23:04:35.610Z,100077.27
2019-05-03T23:07:07.386Z,100078.28
2019-05-03T23:09:39.080Z,100077.80
2019-05-03T23:12:10.699Z,100035.00
2019-05-03T23:14:44.549Z,100080.08
2019-05-03T23:17:16.048Z,100080.50
2019-05-03T23:19:49.391Z,100074.79
2019-05-03T23:22:24.573Z,100065.45
2019-05-03T23:24:56.658Z,100071.69
2019-05-03T23:27:28.297Z,100075.44
2019-05-03T23:30:00.194Z,100082.44
2019-05-03T23:32:31.648Z,100074.03
2019-05-03T23:35:04.953Z,100075.70
2019-05-03T23:37:37.113Z,100078.84
2019-05-03T23:40:09.142Z,100080.81
2019-05-03T23:42:40.801Z,100081.11
2019-05-03T23:45:14.905Z,100072.30
2019-05-03T23:47:49.650Z,100068.03
2019-05-03T23:50:24.715Z,100073.09
2019-05-03T23:52:56.878Z,100077.45
2019-05-03T23:55:36.677Z,100079.38
2019-05-03T23:58:08.660Z,100076.44
